Terminal Aerodrome Forecast
Issued by NWS

Home | Current Version | Previous Version | Text Only | Print | Product List | Glossary On
Versions: 1 2 3 4 5 6 7 8 9 10 11 12 13 14
635
FTUS43 KAPX 251120
TAFMBL
TAF
KMBL 251120Z 2512/2612 07008KT P6SM -RA OVC025
     FM251400 08010G18KT P6SM OVC015
     FM252100 09012G20KT P6SM -SHRA OVC025
     FM260100 10011KT 3SM -RA BR OVC015=

USA.gov is the U.S. government's official web portal to all federal, state and local government web resources and services.